HYC weather

Wycombe Air Park
High Wycombe, England, United Kingdom

Public forecast

Using degrees Celsius for public forecast. Weather courtesy of forecast.io.

Closest aviation weather report (METAR) to Wycombe Air Park

Closest report is RAF Benson, 10.7 nm (19.9 km) W. Retrieved 2019/10/17 21:20 UTC (23 minutes ago):

EGUB 172120Z 16012KT 9999 FEW018 BKN100 11/09 Q1001 TEMPO 7000 SHRA SCT018 RMK BLU TEMPO WHT

Closest aviation forecast (TAF) to Wycombe Air Park

Closest forecast is RAF Benson, 10.7 nm (19.9 km) W. Retrieved 2019/10/17 21:41 UTC (2 minutes ago):

TAF EGUB 171932Z 1721/1815 19010KT 9999 FEW025 TEMPO 1721/1808 7000 SHRA SCT022 PROB40 TEMPO 1723/1807 3000 +SHRA BKN014CB PROB40 TEMPO 1810/1815 23015G26KT 7000 SHRA SCT020CB